sensor_id;sensor_type;location;lat;lon;timestamp;temperature;humidity
13488;DHT22;6816;48.506;9.050;2023-07-31T00:01:36;16.10;99.90
13488;DHT22;6816;48.506;9.050;2023-07-31T00:04:37;16.10;99.90
13488;DHT22;6816;48.506;9.050;2023-07-31T00:07:37;16.00;99.90
13488;DHT22;6816;48.506;9.050;2023-07-31T00:10:38;16.00;99.90
13488;DHT22;6816;48.506;9.050;2023-07-31T00:13:38;16.00;99.90
13488;DHT22;6816;48.506;9.050;2023-07-31T00:16:39;16.00;99.90
13488;DHT22;6816;48.506;9.050;2023-07-31T00:19:40;16.00;99.90
13488;DHT22;6816;48.506;9.050;2023-07-31T00:22:40;15.90;99.90
13488;DHT22;6816;48.506;9.050;2023-07-31T00:25:41;15.90;99.90
13488;DHT22;6816;48.506;9.050;2023-07-31T00:28:42;15.90;99.90
13488;DHT22;6816;48.506;9.050;2023-07-31T00:31:42;15.80;99.90
13488;DHT22;6816;48.506;9.050;2023-07-31T00:34:43;15.80;99.90
13488;DHT22;6816;48.506;9.050;2023-07-31T00:37:44;15.80;99.90
13488;DHT22;6816;48.506;9.050;2023-07-31T00:40:44;15.80;99.90
13488;DHT22;6816;48.506;9.050;2023-07-31T00:43:45;15.80;99.90
13488;DHT22;6816;48.506;9.050;2023-07-31T00:46:45;15.80;99.90
13488;DHT22;6816;48.506;9.050;2023-07-31T00:49:46;15.70;99.90
13488;DHT22;6816;48.506;9.050;2023-07-31T00:52:47;15.70;99.90
13488;DHT22;6816;48.506;9.050;2023-07-31T00:55:48;15.70;99.90
13488;DHT22;6816;48.506;9.050;2023-07-31T00:58:48;15.70;99.90
13488;DHT22;6816;48.506;9.050;2023-07-31T01:01:49;15.60;99.90
13488;DHT22;6816;48.506;9.050;2023-07-31T01:04:50;15.60;99.90
13488;DHT22;6816;48.506;9.050;2023-07-31T01:11:43;15.60;99.90
13488;DHT22;6816;48.506;9.050;2023-07-31T01:15:06;15.50;99.90
13488;DHT22;6816;48.506;9.050;2023-07-31T01:18:11;15.50;99.90
13488;DHT22;6816;48.506;9.050;2023-07-31T01:28:11;15.40;99.90
13488;DHT22;6816;48.506;9.050;2023-07-31T01:31:21;15.40;99.90
13488;DHT22;6816;48.506;9.050;2023-07-31T01:34:23;15.30;99.90
13488;DHT22;6816;48.506;9.050;2023-07-31T01:37:29;15.30;99.90
13488;DHT22;6816;48.506;9.050;2023-07-31T01:40:30;15.30;99.90
13488;DHT22;6816;48.506;9.050;2023-07-31T01:43:30;15.20;99.90
13488;DHT22;6816;48.506;9.050;2023-07-31T01:46:31;15.20;99.90
13488;DHT22;6816;48.506;9.050;2023-07-31T01:49:32;15.10;99.90
13488;DHT22;6816;48.506;9.050;2023-07-31T01:52:32;15.10;99.90
13488;DHT22;6816;48.506;9.050;2023-07-31T01:55:33;15.10;99.90
13488;DHT22;6816;48.506;9.050;2023-07-31T01:58:33;15.00;99.90
13488;DHT22;6816;48.506;9.050;2023-07-31T02:01:34;15.00;99.90
13488;DHT22;6816;48.506;9.050;2023-07-31T02:04:34;15.00;99.90
13488;DHT22;6816;48.506;9.050;2023-07-31T02:07:35;14.90;99.90
13488;DHT22;6816;48.506;9.050;2023-07-31T02:10:35;15.00;99.90
13488;DHT22;6816;48.506;9.050;2023-07-31T02:13:36;14.90;99.90
13488;DHT22;6816;48.506;9.050;2023-07-31T02:16:37;14.90;99.90
13488;DHT22;6816;48.506;9.050;2023-07-31T02:19:37;14.80;99.90
13488;DHT22;6816;48.506;9.050;2023-07-31T02:22:38;14.80;99.90
13488;DHT22;6816;48.506;9.050;2023-07-31T02:25:38;14.90;99.90
13488;DHT22;6816;48.506;9.050;2023-07-31T02:28:39;14.80;99.90
13488;DHT22;6816;48.506;9.050;2023-07-31T02:31:39;14.70;99.90
13488;DHT22;6816;48.506;9.050;2023-07-31T02:34:40;14.80;99.90
13488;DHT22;6816;48.506;9.050;2023-07-31T02:37:41;14.70;99.90
13488;DHT22;6816;48.506;9.050;2023-07-31T02:40:42;14.70;99.90
13488;DHT22;6816;48.506;9.050;2023-07-31T02:43:43;14.70;99.90
13488;DHT22;6816;48.506;9.050;2023-07-31T02:46:43;14.60;99.90
13488;DHT22;6816;48.506;9.050;2023-07-31T02:49:44;14.70;99.90
13488;DHT22;6816;48.506;9.050;2023-07-31T02:52:44;14.70;99.90
13488;DHT22;6816;48.506;9.050;2023-07-31T02:55:45;14.50;99.90
13488;DHT22;6816;48.506;9.050;2023-07-31T02:58:46;14.50;99.90
13488;DHT22;6816;48.506;9.050;2023-07-31T03:01:46;14.50;99.90
13488;DHT22;6816;48.506;9.050;2023-07-31T03:04:47;14.50;99.90
13488;DHT22;6816;48.506;9.050;2023-07-31T03:07:47;14.60;99.90
13488;DHT22;6816;48.506;9.050;2023-07-31T03:10:48;14.50;99.90
13488;DHT22;6816;48.506;9.050;2023-07-31T03:13:48;14.60;99.90
13488;DHT22;6816;48.506;9.050;2023-07-31T03:16:49;14.60;99.90
13488;DHT22;6816;48.506;9.050;2023-07-31T03:19:49;14.60;99.90
13488;DHT22;6816;48.506;9.050;2023-07-31T03:22:50;14.50;99.90
13488;DHT22;6816;48.506;9.050;2023-07-31T03:26:02;14.50;99.90
13488;DHT22;6816;48.506;9.050;2023-07-31T03:29:05;14.60;99.90
13488;DHT22;6816;48.506;9.050;2023-07-31T03:32:06;14.60;99.90
13488;DHT22;6816;48.506;9.050;2023-07-31T03:35:07;14.60;99.90
13488;DHT22;6816;48.506;9.050;2023-07-31T03:38:07;14.60;99.90
13488;DHT22;6816;48.506;9.050;2023-07-31T03:41:08;14.60;99.90
13488;DHT22;6816;48.506;9.050;2023-07-31T03:44:10;14.70;99.90
13488;DHT22;6816;48.506;9.050;2023-07-31T03:47:11;14.60;99.90
13488;DHT22;6816;48.506;9.050;2023-07-31T03:50:11;14.50;99.90
13488;DHT22;6816;48.506;9.050;2023-07-31T03:53:12;14.50;99.90
13488;DHT22;6816;48.506;9.050;2023-07-31T03:56:13;14.50;99.90
13488;DHT22;6816;48.506;9.050;2023-07-31T03:59:14;14.50;99.90
13488;DHT22;6816;48.506;9.050;2023-07-31T04:02:14;14.50;99.90
13488;DHT22;6816;48.506;9.050;2023-07-31T04:05:15;14.50;99.90
13488;DHT22;6816;48.506;9.050;2023-07-31T04:08:15;14.50;99.90
13488;DHT22;6816;48.506;9.050;2023-07-31T04:11:16;14.50;99.90
13488;DHT22;6816;48.506;9.050;2023-07-31T04:14:17;14.50;99.90
13488;DHT22;6816;48.506;9.050;2023-07-31T04:17:18;14.50;99.90
13488;DHT22;6816;48.506;9.050;2023-07-31T04:20:18;14.50;99.90
13488;DHT22;6816;48.506;9.050;2023-07-31T04:23:19;14.50;99.90
13488;DHT22;6816;48.506;9.050;2023-07-31T04:26:19;14.50;99.90
13488;DHT22;6816;48.506;9.050;2023-07-31T04:29:20;14.60;99.90
13488;DHT22;6816;48.506;9.050;2023-07-31T04:32:21;14.80;99.90
13488;DHT22;6816;48.506;9.050;2023-07-31T04:35:21;14.60;99.90
13488;DHT22;6816;48.506;9.050;2023-07-31T04:38:22;14.70;99.90
13488;DHT22;6816;48.506;9.050;2023-07-31T04:41:22;14.70;99.90
13488;DHT22;6816;48.506;9.050;2023-07-31T04:44:23;14.80;99.90
13488;DHT22;6816;48.506;9.050;2023-07-31T04:47:24;14.70;99.90
13488;DHT22;6816;48.506;9.050;2023-07-31T04:50:24;14.80;99.90
13488;DHT22;6816;48.506;9.050;2023-07-31T04:53:25;14.90;99.90
13488;DHT22;6816;48.506;9.050;2023-07-31T04:56:25;14.90;99.90
13488;DHT22;6816;48.506;9.050;2023-07-31T04:59:26;15.00;99.90
13488;DHT22;6816;48.506;9.050;2023-07-31T05:02:26;15.00;99.90
13488;DHT22;6816;48.506;9.050;2023-07-31T05:05:27;15.10;99.90
13488;DHT22;6816;48.506;9.050;2023-07-31T05:08:28;15.10;99.90
13488;DHT22;6816;48.506;9.050;2023-07-31T05:11:28;15.20;99.90
13488;DHT22;6816;48.506;9.050;2023-07-31T05:14:29;15.20;99.90
13488;DHT22;6816;48.506;9.050;2023-07-31T05:17:30;15.40;99.90
13488;DHT22;6816;48.506;9.050;2023-07-31T05:20:30;15.40;99.90
13488;DHT22;6816;48.506;9.050;2023-07-31T05:23:31;15.40;99.90
13488;DHT22;6816;48.506;9.050;2023-07-31T05:26:33;15.70;99.90
13488;DHT22;6816;48.506;9.050;2023-07-31T05:29:33;15.70;99.90
13488;DHT22;6816;48.506;9.050;2023-07-31T05:32:34;15.70;99.90
13488;DHT22;6816;48.506;9.050;2023-07-31T05:35:35;15.80;99.90
13488;DHT22;6816;48.506;9.050;2023-07-31T05:38:35;16.00;99.90
13488;DHT22;6816;48.506;9.050;2023-07-31T05:41:36;16.10;99.90
13488;DHT22;6816;48.506;9.050;2023-07-31T05:44:36;16.30;99.90
13488;DHT22;6816;48.506;9.050;2023-07-31T05:47:37;16.40;99.90
13488;DHT22;6816;48.506;9.050;2023-07-31T05:50:39;16.50;99.90
13488;DHT22;6816;48.506;9.050;2023-07-31T05:53:40;16.70;99.90
13488;DHT22;6816;48.506;9.050;2023-07-31T05:56:41;16.80;99.90
13488;DHT22;6816;48.506;9.050;2023-07-31T05:59:41;17.00;99.90
13488;DHT22;6816;48.506;9.050;2023-07-31T06:02:42;17.10;99.90
13488;DHT22;6816;48.506;9.050;2023-07-31T06:05:42;17.20;99.90
13488;DHT22;6816;48.506;9.050;2023-07-31T06:08:43;17.40;99.90
13488;DHT22;6816;48.506;9.050;2023-07-31T06:11:43;17.50;99.90
13488;DHT22;6816;48.506;9.050;2023-07-31T06:14:44;17.50;99.90
13488;DHT22;6816;48.506;9.050;2023-07-31T06:17:45;17.60;99.90
13488;DHT22;6816;48.506;9.050;2023-07-31T06:20:45;17.60;99.90
13488;DHT22;6816;48.506;9.050;2023-07-31T06:23:47;17.60;99.90
13488;DHT22;6816;48.506;9.050;2023-07-31T06:26:48;17.60;99.90
13488;DHT22;6816;48.506;9.050;2023-07-31T06:29:49;17.70;99.90
13488;DHT22;6816;48.506;9.050;2023-07-31T06:32:49;17.70;99.90
13488;DHT22;6816;48.506;9.050;2023-07-31T06:35:50;17.70;99.90
13488;DHT22;6816;48.506;9.050;2023-07-31T06:38:51;17.70;99.90
13488;DHT22;6816;48.506;9.050;2023-07-31T06:41:51;17.80;99.90
13488;DHT22;6816;48.506;9.050;2023-07-31T06:44:52;17.90;99.90
13488;DHT22;6816;48.506;9.050;2023-07-31T06:47:52;18.00;99.90
13488;DHT22;6816;48.506;9.050;2023-07-31T06:50:53;18.10;99.90
13488;DHT22;6816;48.506;9.050;2023-07-31T06:53:54;18.20;99.90
13488;DHT22;6816;48.506;9.050;2023-07-31T06:56:54;18.30;99.90
13488;DHT22;6816;48.506;9.050;2023-07-31T06:59:55;18.40;99.90
13488;DHT22;6816;48.506;9.050;2023-07-31T07:02:55;18.50;99.90
13488;DHT22;6816;48.506;9.050;2023-07-31T07:05:56;18.60;99.90
13488;DHT22;6816;48.506;9.050;2023-07-31T07:08:57;18.70;99.90
13488;DHT22;6816;48.506;9.050;2023-07-31T07:11:57;18.90;99.90
13488;DHT22;6816;48.506;9.050;2023-07-31T07:14:58;18.90;99.90
13488;DHT22;6816;48.506;9.050;2023-07-31T07:17:58;19.10;99.90
13488;DHT22;6816;48.506;9.050;2023-07-31T07:20:59;19.10;99.90
13488;DHT22;6816;48.506;9.050;2023-07-31T07:24:02;19.20;99.90
13488;DHT22;6816;48.506;9.050;2023-07-31T07:27:03;19.30;99.90
13488;DHT22;6816;48.506;9.050;2023-07-31T07:30:04;19.50;99.90
13488;DHT22;6816;48.506;9.050;2023-07-31T07:33:05;19.60;99.90
13488;DHT22;6816;48.506;9.050;2023-07-31T07:36:06;19.80;99.90
13488;DHT22;6816;48.506;9.050;2023-07-31T07:39:10;19.90;99.90
13488;DHT22;6816;48.506;9.050;2023-07-31T07:42:11;20.10;99.90
13488;DHT22;6816;48.506;9.050;2023-07-31T07:45:12;20.20;99.90
13488;DHT22;6816;48.506;9.050;2023-07-31T07:48:12;20.30;99.90
13488;DHT22;6816;48.506;9.050;2023-07-31T07:51:13;20.40;99.90
13488;DHT22;6816;48.506;9.050;2023-07-31T07:54:14;20.50;99.90
13488;DHT22;6816;48.506;9.050;2023-07-31T07:57:14;20.60;99.90
13488;DHT22;6816;48.506;9.050;2023-07-31T08:00:15;20.70;99.90
13488;DHT22;6816;48.506;9.050;2023-07-31T08:03:17;20.80;99.90
13488;DHT22;6816;48.506;9.050;2023-07-31T08:06:17;20.90;99.90
13488;DHT22;6816;48.506;9.050;2023-07-31T08:09:18;21.20;99.90
13488;DHT22;6816;48.506;9.050;2023-07-31T08:12:19;21.20;99.90
13488;DHT22;6816;48.506;9.050;2023-07-31T08:15:19;21.30;99.90
13488;DHT22;6816;48.506;9.050;2023-07-31T08:18:20;21.50;99.90
13488;DHT22;6816;48.506;9.050;2023-07-31T08:21:21;21.60;99.90
13488;DHT22;6816;48.506;9.050;2023-07-31T08:24:22;21.70;99.90
13488;DHT22;6816;48.506;9.050;2023-07-31T08:27:23;21.80;99.90
13488;DHT22;6816;48.506;9.050;2023-07-31T08:30:23;22.00;99.90
13488;DHT22;6816;48.506;9.050;2023-07-31T08:33:24;22.10;99.90
13488;DHT22;6816;48.506;9.050;2023-07-31T08:36:25;22.20;99.90
13488;DHT22;6816;48.506;9.050;2023-07-31T08:39:25;22.30;99.90
13488;DHT22;6816;48.506;9.050;2023-07-31T08:42:26;22.40;99.50
13488;DHT22;6816;48.506;9.050;2023-07-31T08:45:27;22.50;99.00
13488;DHT22;6816;48.506;9.050;2023-07-31T08:48:28;22.70;98.10
13488;DHT22;6816;48.506;9.050;2023-07-31T08:51:30;22.70;97.60
13488;DHT22;6816;48.506;9.050;2023-07-31T08:54:30;22.80;97.60
13488;DHT22;6816;48.506;9.050;2023-07-31T08:57:36;22.80;97.70
13488;DHT22;6816;48.506;9.050;2023-07-31T09:00:37;22.80;97.20
13488;DHT22;6816;48.506;9.050;2023-07-31T09:03:39;22.90;97.60
13488;DHT22;6816;48.506;9.050;2023-07-31T09:06:41;23.00;97.00
13488;DHT22;6816;48.506;9.050;2023-07-31T09:09:42;23.00;96.70
13488;DHT22;6816;48.506;9.050;2023-07-31T09:12:43;23.10;96.10
13488;DHT22;6816;48.506;9.050;2023-07-31T09:15:46;23.10;95.70
13488;DHT22;6816;48.506;9.050;2023-07-31T09:18:54;23.10;95.60
13488;DHT22;6816;48.506;9.050;2023-07-31T09:21:58;23.10;93.90
13488;DHT22;6816;48.506;9.050;2023-07-31T09:28:14;23.20;93.10
13488;DHT22;6816;48.506;9.050;2023-07-31T09:31:15;23.30;95.40
13488;DHT22;6816;48.506;9.050;2023-07-31T09:34:16;23.40;95.20
13488;DHT22;6816;48.506;9.050;2023-07-31T09:37:16;23.50;95.00
13488;DHT22;6816;48.506;9.050;2023-07-31T09:40:35;23.50;94.80
13488;DHT22;6816;48.506;9.050;2023-07-31T09:43:37;23.60;91.80
13488;DHT22;6816;48.506;9.050;2023-07-31T09:46:38;23.70;93.90
13488;DHT22;6816;48.506;9.050;2023-07-31T09:49:39;23.70;94.10
13488;DHT22;6816;48.506;9.050;2023-07-31T09:52:39;23.70;94.30
13488;DHT22;6816;48.506;9.050;2023-07-31T09:55:41;23.80;93.90
13488;DHT22;6816;48.506;9.050;2023-07-31T09:58:42;23.90;93.60
13488;DHT22;6816;48.506;9.050;2023-07-31T10:01:44;23.90;93.80
13488;DHT22;6816;48.506;9.050;2023-07-31T10:04:49;24.00;93.50
13488;DHT22;6816;48.506;9.050;2023-07-31T10:07:59;24.00;93.50
13488;DHT22;6816;48.506;9.050;2023-07-31T10:11:00;24.10;91.30
13488;DHT22;6816;48.506;9.050;2023-07-31T10:14:04;24.20;93.10
13488;DHT22;6816;48.506;9.050;2023-07-31T10:17:06;24.30;93.10
13488;DHT22;6816;48.506;9.050;2023-07-31T10:20:09;24.30;92.80
13488;DHT22;6816;48.506;9.050;2023-07-31T10:23:10;24.40;92.60
13488;DHT22;6816;48.506;9.050;2023-07-31T10:26:11;24.50;92.40
13488;DHT22;6816;48.506;9.050;2023-07-31T10:29:15;24.50;92.20
13488;DHT22;6816;48.506;9.050;2023-07-31T10:32:17;24.50;91.90
13488;DHT22;6816;48.506;9.050;2023-07-31T10:35:18;24.50;91.70
13488;DHT22;6816;48.506;9.050;2023-07-31T10:38:18;24.50;91.60
13488;DHT22;6816;48.506;9.050;2023-07-31T10:41:19;24.60;91.70
13488;DHT22;6816;48.506;9.050;2023-07-31T10:44:20;24.60;91.40
13488;DHT22;6816;48.506;9.050;2023-07-31T10:47:21;24.50;91.70
13488;DHT22;6816;48.506;9.050;2023-07-31T10:50:22;24.60;91.70
13488;DHT22;6816;48.506;9.050;2023-07-31T10:53:26;24.60;91.40
13488;DHT22;6816;48.506;9.050;2023-07-31T10:56:26;24.70;91.40
13488;DHT22;6816;48.506;9.050;2023-07-31T10:59:27;24.80;91.70
13488;DHT22;6816;48.506;9.050;2023-07-31T11:02:34;24.80;91.50
13488;DHT22;6816;48.506;9.050;2023-07-31T11:08:47;25.00;88.70
13488;DHT22;6816;48.506;9.050;2023-07-31T11:11:48;25.10;91.20
13488;DHT22;6816;48.506;9.050;2023-07-31T11:14:57;25.20;91.00
13488;DHT22;6816;48.506;9.050;2023-07-31T11:17:57;25.20;88.60
13488;DHT22;6816;48.506;9.050;2023-07-31T11:20:58;25.40;90.60
13488;DHT22;6816;48.506;9.050;2023-07-31T11:23:59;25.50;90.60
13488;DHT22;6816;48.506;9.050;2023-07-31T11:26:59;25.60;90.90
13488;DHT22;6816;48.506;9.050;2023-07-31T11:30:02;25.70;90.70
13488;DHT22;6816;48.506;9.050;2023-07-31T11:33:05;25.80;90.50
13488;DHT22;6816;48.506;9.050;2023-07-31T11:36:05;26.00;90.50
13488;DHT22;6816;48.506;9.050;2023-07-31T11:39:08;26.10;90.30
13488;DHT22;6816;48.506;9.050;2023-07-31T11:42:08;26.30;90.00
13488;DHT22;6816;48.506;9.050;2023-07-31T11:45:09;26.30;89.00
13488;DHT22;6816;48.506;9.050;2023-07-31T11:48:10;26.40;88.80
13488;DHT22;6816;48.506;9.050;2023-07-31T11:51:20;26.40;88.40
13488;DHT22;6816;48.506;9.050;2023-07-31T11:54:21;26.40;85.30
13488;DHT22;6816;48.506;9.050;2023-07-31T11:57:22;26.50;86.00
13488;DHT22;6816;48.506;9.050;2023-07-31T12:00:23;26.40;85.60
13488;DHT22;6816;48.506;9.050;2023-07-31T12:03:25;26.30;85.20
13488;DHT22;6816;48.506;9.050;2023-07-31T12:06:35;26.20;85.10
13488;DHT22;6816;48.506;9.050;2023-07-31T12:09:37;26.10;82.40
13488;DHT22;6816;48.506;9.050;2023-07-31T12:12:37;25.90;85.80
13488;DHT22;6816;48.506;9.050;2023-07-31T12:15:40;25.80;85.50
13488;DHT22;6816;48.506;9.050;2023-07-31T12:18:41;25.60;85.60
13488;DHT22;6816;48.506;9.050;2023-07-31T12:21:41;25.50;86.60
13488;DHT22;6816;48.506;9.050;2023-07-31T12:24:43;25.40;86.10
13488;DHT22;6816;48.506;9.050;2023-07-31T12:27:47;25.20;85.50
13488;DHT22;6816;48.506;9.050;2023-07-31T12:30:47;25.20;86.30
13488;DHT22;6816;48.506;9.050;2023-07-31T12:33:49;25.10;86.70
13488;DHT22;6816;48.506;9.050;2023-07-31T12:36:53;25.20;86.90
13488;DHT22;6816;48.506;9.050;2023-07-31T12:39:54;25.20;86.70
13488;DHT22;6816;48.506;9.050;2023-07-31T12:42:54;25.20;87.90
13488;DHT22;6816;48.506;9.050;2023-07-31T12:45:55;25.30;88.20
13488;DHT22;6816;48.506;9.050;2023-07-31T12:48:56;25.40;87.70
13488;DHT22;6816;48.506;9.050;2023-07-31T12:51:57;25.50;88.70
13488;DHT22;6816;48.506;9.050;2023-07-31T12:54:59;25.60;88.70
13488;DHT22;6816;48.506;9.050;2023-07-31T12:58:03;25.70;88.00
13488;DHT22;6816;48.506;9.050;2023-07-31T13:01:04;25.80;86.50
13488;DHT22;6816;48.506;9.050;2023-07-31T13:04:04;25.90;87.70
13488;DHT22;6816;48.506;9.050;2023-07-31T13:07:05;25.90;86.50
13488;DHT22;6816;48.506;9.050;2023-07-31T13:10:07;26.00;86.30
13488;DHT22;6816;48.506;9.050;2023-07-31T13:13:09;26.00;85.70
13488;DHT22;6816;48.506;9.050;2023-07-31T13:16:10;26.00;85.50
13488;DHT22;6816;48.506;9.050;2023-07-31T13:19:10;26.00;86.20
13488;DHT22;6816;48.506;9.050;2023-07-31T13:22:11;26.00;85.80
13488;DHT22;6816;48.506;9.050;2023-07-31T13:25:11;26.00;86.90
13488;DHT22;6816;48.506;9.050;2023-07-31T13:28:12;26.00;85.50
13488;DHT22;6816;48.506;9.050;2023-07-31T13:31:13;26.00;85.40
13488;DHT22;6816;48.506;9.050;2023-07-31T13:34:13;26.00;84.70
13488;DHT22;6816;48.506;9.050;2023-07-31T13:37:14;25.90;84.00
13488;DHT22;6816;48.506;9.050;2023-07-31T13:40:15;25.90;83.50
13488;DHT22;6816;48.506;9.050;2023-07-31T13:43:15;25.80;83.80
13488;DHT22;6816;48.506;9.050;2023-07-31T13:46:16;25.70;83.80
13488;DHT22;6816;48.506;9.050;2023-07-31T13:49:17;25.60;83.50
13488;DHT22;6816;48.506;9.050;2023-07-31T13:52:17;25.50;83.00
13488;DHT22;6816;48.506;9.050;2023-07-31T13:55:18;25.40;82.90
13488;DHT22;6816;48.506;9.050;2023-07-31T13:58:18;25.30;82.70
13488;DHT22;6816;48.506;9.050;2023-07-31T14:01:19;25.20;82.90
13488;DHT22;6816;48.506;9.050;2023-07-31T14:04:20;25.10;82.60
13488;DHT22;6816;48.506;9.050;2023-07-31T14:07:20;25.00;82.50
13488;DHT22;6816;48.506;9.050;2023-07-31T14:10:21;24.90;82.60
13488;DHT22;6816;48.506;9.050;2023-07-31T14:13:21;24.90;82.80
13488;DHT22;6816;48.506;9.050;2023-07-31T14:16:22;24.80;83.00
13488;DHT22;6816;48.506;9.050;2023-07-31T14:19:22;24.80;83.30
13488;DHT22;6816;48.506;9.050;2023-07-31T14:22:31;24.70;83.80
13488;DHT22;6816;48.506;9.050;2023-07-31T14:25:33;24.70;80.90
13488;DHT22;6816;48.506;9.050;2023-07-31T14:28:34;24.60;83.90
13488;DHT22;6816;48.506;9.050;2023-07-31T14:31:36;24.60;84.00
13488;DHT22;6816;48.506;9.050;2023-07-31T14:34:36;24.50;83.20
13488;DHT22;6816;48.506;9.050;2023-07-31T14:37:42;24.50;83.30
13488;DHT22;6816;48.506;9.050;2023-07-31T14:40:43;24.50;82.90
13488;DHT22;6816;48.506;9.050;2023-07-31T14:43:43;24.50;83.10
13488;DHT22;6816;48.506;9.050;2023-07-31T14:46:44;24.50;83.40
13488;DHT22;6816;48.506;9.050;2023-07-31T14:49:45;24.50;83.60
13488;DHT22;6816;48.506;9.050;2023-07-31T14:52:45;24.50;83.90
13488;DHT22;6816;48.506;9.050;2023-07-31T14:55:46;24.40;83.80
13488;DHT22;6816;48.506;9.050;2023-07-31T14:58:46;24.50;83.80
13488;DHT22;6816;48.506;9.050;2023-07-31T15:01:47;24.50;84.10
13488;DHT22;6816;48.506;9.050;2023-07-31T15:04:47;24.50;84.10
13488;DHT22;6816;48.506;9.050;2023-07-31T15:07:48;24.40;84.70
13488;DHT22;6816;48.506;9.050;2023-07-31T15:10:49;24.40;85.20
13488;DHT22;6816;48.506;9.050;2023-07-31T15:13:49;24.40;85.20
13488;DHT22;6816;48.506;9.050;2023-07-31T15:16:50;24.40;85.40
13488;DHT22;6816;48.506;9.050;2023-07-31T15:19:51;24.40;86.20
13488;DHT22;6816;48.506;9.050;2023-07-31T15:22:51;24.40;86.40
13488;DHT22;6816;48.506;9.050;2023-07-31T15:25:52;24.40;86.30
13488;DHT22;6816;48.506;9.050;2023-07-31T15:29:01;24.40;86.50
13488;DHT22;6816;48.506;9.050;2023-07-31T15:32:04;24.40;82.80
13488;DHT22;6816;48.506;9.050;2023-07-31T15:35:06;24.50;86.10
13488;DHT22;6816;48.506;9.050;2023-07-31T15:38:07;24.50;87.20
13488;DHT22;6816;48.506;9.050;2023-07-31T15:41:07;24.50;87.60
13488;DHT22;6816;48.506;9.050;2023-07-31T15:44:08;24.50;87.30
13488;DHT22;6816;48.506;9.050;2023-07-31T15:47:09;24.50;87.00
13488;DHT22;6816;48.506;9.050;2023-07-31T15:50:09;24.60;87.40
13488;DHT22;6816;48.506;9.050;2023-07-31T15:53:10;24.60;87.60
13488;DHT22;6816;48.506;9.050;2023-07-31T15:56:11;24.60;87.80
13488;DHT22;6816;48.506;9.050;2023-07-31T15:59:11;24.70;88.10
13488;DHT22;6816;48.506;9.050;2023-07-31T16:02:12;24.70;89.10
13488;DHT22;6816;48.506;9.050;2023-07-31T16:05:12;24.70;88.40
13488;DHT22;6816;48.506;9.050;2023-07-31T16:08:13;24.70;88.10
13488;DHT22;6816;48.506;9.050;2023-07-31T16:11:14;24.70;88.40
13488;DHT22;6816;48.506;9.050;2023-07-31T16:14:14;24.70;88.40
13488;DHT22;6816;48.506;9.050;2023-07-31T16:17:15;24.70;88.50
13488;DHT22;6816;48.506;9.050;2023-07-31T16:20:16;24.70;88.80
13488;DHT22;6816;48.506;9.050;2023-07-31T16:23:16;24.80;88.60
13488;DHT22;6816;48.506;9.050;2023-07-31T16:26:17;24.80;89.10
13488;DHT22;6816;48.506;9.050;2023-07-31T16:29:17;24.80;89.10
13488;DHT22;6816;48.506;9.050;2023-07-31T16:32:18;24.90;88.90
13488;DHT22;6816;48.506;9.050;2023-07-31T16:35:19;24.90;88.30
13488;DHT22;6816;48.506;9.050;2023-07-31T16:38:19;24.90;88.10
13488;DHT22;6816;48.506;9.050;2023-07-31T16:41:20;24.90;87.40
13488;DHT22;6816;48.506;9.050;2023-07-31T16:44:21;24.90;87.40
13488;DHT22;6816;48.506;9.050;2023-07-31T16:47:22;25.00;87.30
13488;DHT22;6816;48.506;9.050;2023-07-31T16:50:22;24.90;86.70
13488;DHT22;6816;48.506;9.050;2023-07-31T16:53:23;24.80;86.50
13488;DHT22;6816;48.506;9.050;2023-07-31T16:56:23;24.80;86.90
13488;DHT22;6816;48.506;9.050;2023-07-31T16:59:24;24.80;86.80
13488;DHT22;6816;48.506;9.050;2023-07-31T17:02:25;24.80;86.80
13488;DHT22;6816;48.506;9.050;2023-07-31T17:05:25;24.80;86.50
13488;DHT22;6816;48.506;9.050;2023-07-31T17:08:26;24.70;87.30
13488;DHT22;6816;48.506;9.050;2023-07-31T17:11:27;24.70;86.20
13488;DHT22;6816;48.506;9.050;2023-07-31T17:14:27;24.70;86.30
13488;DHT22;6816;48.506;9.050;2023-07-31T17:17:28;24.70;86.40
13488;DHT22;6816;48.506;9.050;2023-07-31T17:20:30;24.70;87.30
13488;DHT22;6816;48.506;9.050;2023-07-31T17:23:32;24.70;86.40
13488;DHT22;6816;48.506;9.050;2023-07-31T17:26:33;24.70;86.40
13488;DHT22;6816;48.506;9.050;2023-07-31T17:29:33;24.70;86.40
13488;DHT22;6816;48.506;9.050;2023-07-31T17:32:34;24.70;87.00
13488;DHT22;6816;48.506;9.050;2023-07-31T17:35:34;24.70;87.30
13488;DHT22;6816;48.506;9.050;2023-07-31T17:38:35;24.70;87.60
13488;DHT22;6816;48.506;9.050;2023-07-31T17:41:36;24.70;87.20
13488;DHT22;6816;48.506;9.050;2023-07-31T17:44:36;24.70;87.00
13488;DHT22;6816;48.506;9.050;2023-07-31T17:47:37;24.80;86.90
13488;DHT22;6816;48.506;9.050;2023-07-31T17:50:37;24.80;86.90
13488;DHT22;6816;48.506;9.050;2023-07-31T17:53:38;24.70;86.80
13488;DHT22;6816;48.506;9.050;2023-07-31T17:56:39;24.70;87.00
13488;DHT22;6816;48.506;9.050;2023-07-31T17:59:39;24.70;87.10
13488;DHT22;6816;48.506;9.050;2023-07-31T18:02:40;24.60;87.00
13488;DHT22;6816;48.506;9.050;2023-07-31T18:05:41;24.70;87.10
13488;DHT22;6816;48.506;9.050;2023-07-31T18:08:41;24.50;87.10
13488;DHT22;6816;48.506;9.050;2023-07-31T18:11:42;24.50;87.30
13488;DHT22;6816;48.506;9.050;2023-07-31T18:14:42;24.50;87.50
13488;DHT22;6816;48.506;9.050;2023-07-31T18:17:43;24.40;87.50
13488;DHT22;6816;48.506;9.050;2023-07-31T18:20:43;24.40;87.60
13488;DHT22;6816;48.506;9.050;2023-07-31T18:23:45;24.30;88.60
13488;DHT22;6816;48.506;9.050;2023-07-31T18:26:46;24.20;87.90
13488;DHT22;6816;48.506;9.050;2023-07-31T18:29:46;24.20;88.20
13488;DHT22;6816;48.506;9.050;2023-07-31T18:32:47;24.10;88.50
13488;DHT22;6816;48.506;9.050;2023-07-31T18:35:47;24.10;89.70
13488;DHT22;6816;48.506;9.050;2023-07-31T18:38:48;24.00;90.00
13488;DHT22;6816;48.506;9.050;2023-07-31T18:41:49;23.90;90.30
13488;DHT22;6816;48.506;9.050;2023-07-31T18:44:49;23.80;90.50
13488;DHT22;6816;48.506;9.050;2023-07-31T18:47:50;23.60;90.40
13488;DHT22;6816;48.506;9.050;2023-07-31T18:50:51;23.40;90.30
13488;DHT22;6816;48.506;9.050;2023-07-31T18:53:52;23.20;90.40
13488;DHT22;6816;48.506;9.050;2023-07-31T18:56:52;23.10;90.60
13488;DHT22;6816;48.506;9.050;2023-07-31T18:59:53;22.90;90.80
13488;DHT22;6816;48.506;9.050;2023-07-31T19:02:53;22.70;91.10
13488;DHT22;6816;48.506;9.050;2023-07-31T19:06:04;22.60;91.40
13488;DHT22;6816;48.506;9.050;2023-07-31T19:09:05;22.40;91.40
13488;DHT22;6816;48.506;9.050;2023-07-31T19:12:05;22.30;92.00
13488;DHT22;6816;48.506;9.050;2023-07-31T19:15:08;22.20;92.30
13488;DHT22;6816;48.506;9.050;2023-07-31T19:18:10;22.10;92.60
13488;DHT22;6816;48.506;9.050;2023-07-31T19:21:10;21.90;92.80
13488;DHT22;6816;48.506;9.050;2023-07-31T19:24:11;21.90;93.10
13488;DHT22;6816;48.506;9.050;2023-07-31T19:27:12;21.80;93.40
13488;DHT22;6816;48.506;9.050;2023-07-31T19:30:12;21.70;93.60
13488;DHT22;6816;48.506;9.050;2023-07-31T19:33:13;21.60;93.90
13488;DHT22;6816;48.506;9.050;2023-07-31T19:36:14;21.60;94.20
13488;DHT22;6816;48.506;9.050;2023-07-31T19:39:15;21.60;94.30